Red Diamond — A8UM9 — position and weather

sailwx.info

Track history (hours):
 
Tides and Currents Weather Stations Pressure Air Temp Water Temp Dewpoint Dewpoint Depression Visibility Wind Speed Wind Dir Waves Ship Positions

Red Diamond

Last reported at 2014-Dec-16 23:08 UTC. Time now 2014-Dec-19 16:28 UTC.
Position N 29°23' W 094°48'.

Length 190 m; draft 12 m.

Type: Cargo ship. MMSI: 636014524.

Date/timePositionNaut miles runAvg speedWind from/ knotsBaromVisibWave heightAir tempDewpointWater temp
2014-Dec-16 23:08N 29°23' W 094°48'610.3
2014-Dec-16 22:33N 29°28' W 094°51'1010.1
2014-Dec-16 21:33N 29°36' W 094°57'8 7.8
2014-Dec-16 20:33N 29°43' W 095°01'5 5.3
2014-Dec-16 19:33N 29°44' W 095°07'1 1.1
2014-Dec-16 18:31N 29°44' W 095°09'0 0.0
2014-Dec-16 17:31N 29°44' W 095°09'0 0.0
2014-Dec-16 16:31N 29°44' W 095°09'0 0.0
2014-Dec-16 15:31N 29°44' W 095°09'0 0.0
2014-Dec-16 14:31N 29°44' W 095°09'0 0.0
2014-Dec-16 13:31N 29°44' W 095°09'0 0.0
2014-Dec-16 12:31N 29°44' W 095°09'0 0.0
2014-Dec-16 11:31N 29°44' W 095°09'0 0.0
2014-Dec-16 10:31N 29°44' W 095°09'0 0.0
2014-Dec-16 09:31N 29°44' W 095°09'0 0.0
2014-Dec-16 08:31N 29°44' W 095°09'0 0.0
2014-Dec-16 07:31N 29°44' W 095°09'0 0.0
2014-Dec-16 06:31N 29°44' W 095°09'0 0.0
2014-Dec-16 05:22N 29°44' W 095°09'0 0.0
2014-Dec-16 04:32N 29°44' W 095°09'0 0.0
2014-Dec-16 03:31N 29°44' W 095°09'0 0.0
2014-Dec-16 02:25N 29°44' W 095°09'0 0.0
2014-Dec-16 01:10N 29°44' W 095°09'0 0.0
2014-Dec-16 00:07N 29°44' W 095°09'0 0.0
2014-Dec-15 23:19N 29°44' W 095°09'0 0.0
2014-Dec-15 22:31N 29°44' W 095°09'0 0.0
2014-Dec-15 21:31N 29°44' W 095°09'0 0.0
2014-Dec-15 20:31N 29°44' W 095°09'0 0.0
2014-Dec-15 19:31N 29°44' W 095°09'0 0.0
2014-Dec-15 18:31N 29°44' W 095°09'0 0.0
2014-Dec-15 17:31N 29°44' W 095°09'0 0.0
2014-Dec-15 16:31N 29°44' W 095°09'0 0.0
2014-Dec-15 15:31N 29°44' W 095°09'0 0.0
2014-Dec-15 14:31N 29°44' W 095°09'0 0.0
2014-Dec-15 13:31N 29°44' W 095°09'3 3.5
2014-Dec-15 12:33N 29°44' W 095°13'4 0.3
2014-Dec-15 00:17N 29°44' W 095°17'0 0.0
2014-Dec-14 23:26N 29°44' W 095°17'0 0.0
2014-Dec-14 22:32N 29°44' W 095°17'0 0.0
2014-Dec-14 21:32N 29°44' W 095°17'0 0.0
2014-Dec-14 20:26N 29°44' W 095°17'0 0.0
2014-Dec-14 19:32N 29°44' W 095°17'0 0.0
2014-Dec-14 18:32N 29°44' W 095°17'0 0.0
2014-Dec-14 17:32N 29°44' W 095°17'0 0.0
2014-Dec-14 16:32N 29°44' W 095°17'0 0.0
2014-Dec-14 14:29N 29°44' W 095°17'0 0.0
2014-Dec-14 13:32N 29°44' W 095°17'0 0.0
2014-Dec-13 22:32N 29°44' W 095°17'0 0.0
2014-Dec-13 21:32N 29°44' W 095°17'0 0.0
2014-Dec-13 20:32N 29°44' W 095°17'0 0.0
2014-Dec-13 19:14N 29°44' W 095°17'0 0.0
2014-Dec-13 18:14N 29°44' W 095°17'0 0.0
2014-Dec-13 17:32N 29°44' W 095°17'0 0.0
2014-Dec-13 16:32N 29°44' W 095°17'0 0.0
2014-Dec-13 15:32N 29°44' W 095°17'0 0.0
2014-Dec-13 14:32N 29°44' W 095°17'0 0.0
2014-Dec-13 13:29N 29°44' W 095°17'0 0.0
2014-Dec-13 12:32N 29°44' W 095°17'0 0.0
2014-Dec-13 11:32N 29°44' W 095°17'0 0.0
2014-Dec-13 10:32N 29°44' W 095°17'0 0.0
2014-Dec-13 09:32N 29°44' W 095°17'0 0.0
2014-Dec-13 08:32N 29°44' W 095°17'0 0.0
2014-Dec-13 07:32N 29°44' W 095°17'0 0.0
2014-Dec-13 06:32N 29°44' W 095°17'0 0.0
2014-Dec-13 05:32N 29°44' W 095°17'0 0.0
2014-Dec-13 04:32N 29°44' W 095°17'0 0.0
2014-Dec-13 03:32N 29°44' W 095°17'0 0.0
2014-Dec-13 02:32N 29°44' W 095°17'0 0.0
2014-Dec-13 01:32N 29°44' W 095°17'0 0.0
2014-Dec-13 00:32N 29°44' W 095°17'0 0.0
2014-Dec-12 23:32N 29°44' W 095°17'0 0.0
2014-Dec-12 22:32N 29°44' W 095°17'0 0.0
2014-Dec-12 21:32N 29°44' W 095°17'0 0.0
2014-Dec-12 20:32N 29°44' W 095°17'0 0.0
2014-Dec-12 19:32N 29°44' W 095°17'0 0.0
2014-Dec-12 18:32N 29°44' W 095°17'0 0.0
2014-Dec-12 17:32N 29°44' W 095°17'0 0.0
2014-Dec-12 16:32N 29°44' W 095°17'0 0.0
2014-Dec-12 15:32N 29°44' W 095°17'0 0.0
2014-Dec-12 14:32N 29°44' W 095°17'0 0.0
2014-Dec-12 13:32N 29°44' W 095°17'0 0.0
2014-Dec-12 12:32N 29°44' W 095°17'0 0.0
2014-Dec-12 11:32N 29°44' W 095°17'0 0.0
2014-Dec-12 10:32N 29°44' W 095°17'0 0.0
2014-Dec-12 09:32N 29°44' W 095°17'0 0.0
2014-Dec-12 08:32N 29°44' W 095°17'0 0.0
2014-Dec-12 07:32N 29°44' W 095°17'0 0.0
2014-Dec-12 06:32N 29°44' W 095°17'0 0.0
2014-Dec-12 05:32N 29°44' W 095°17'0 0.0
2014-Dec-12 04:32N 29°44' W 095°17'0 0.0
2014-Dec-12 03:32N 29°44' W 095°17'0 0.0
2014-Dec-12 02:32N 29°44' W 095°17'0 0.0
2014-Dec-12 01:32N 29°44' W 095°17'0 0.0
2014-Dec-12 00:32N 29°44' W 095°17'0 0.0
2014-Dec-11 23:32N 29°44' W 095°17'0 0.0
2014-Dec-11 22:32N 29°44' W 095°17'0 0.0
2014-Dec-11 21:32N 29°44' W 095°17'0 0.0
2014-Dec-11 20:32N 29°44' W 095°17'0 0.0
2014-Dec-11 19:32N 29°44' W 095°17'0 0.0
2014-Dec-11 18:32N 29°44' W 095°17'0 0.0
2014-Dec-11 17:32N 29°44' W 095°17'0 0.0
2014-Dec-11 16:32N 29°44' W 095°17'0 0.0
2014-Dec-11 15:32N 29°44' W 095°17'0 0.0
2014-Dec-11 14:32N 29°44' W 095°17'0 0.0
2014-Dec-11 13:32N 29°44' W 095°17'0 0.0
2014-Dec-11 12:32N 29°44' W 095°17'0 0.0
2014-Dec-11 11:32N 29°44' W 095°17'0 0.0
2014-Dec-11 10:32N 29°44' W 095°17'0 0.0
2014-Dec-11 09:32N 29°44' W 095°17'0 0.0
2014-Dec-11 08:32N 29°44' W 095°17'0 0.0
2014-Dec-11 07:32N 29°44' W 095°17'0 0.0
2014-Dec-11 06:32N 29°44' W 095°17'0 0.0
2014-Dec-11 05:32N 29°44' W 095°17'0 0.0
2014-Dec-11 04:32N 29°44' W 095°17'0 0.0
2014-Dec-11 03:32N 29°44' W 095°17'0 0.0
2014-Dec-11 02:32N 29°44' W 095°17'0 0.0
2014-Dec-11 01:32N 29°44' W 095°17'0 0.0
2014-Dec-11 00:32N 29°44' W 095°17'0 0.0
2014-Dec-10 23:32N 29°44' W 095°17'0 0.0
2014-Dec-10 22:32N 29°44' W 095°17'0 0.0
2014-Dec-10 21:32N 29°44' W 095°17'0 0.0
2014-Dec-10 20:32N 29°44' W 095°17'0 0.0
2014-Dec-10 19:32N 29°44' W 095°17'0 0.0
2014-Dec-10 18:32N 29°44' W 095°17'0 0.0
2014-Dec-10 17:32N 29°44' W 095°17'0 0.0
2014-Dec-10 16:32N 29°44' W 095°17'0 0.0
2014-Dec-10 15:32N 29°44' W 095°17'0 0.0
2014-Dec-10 14:32N 29°44' W 095°17'0 0.0
2014-Dec-10 13:32N 29°44' W 095°17'0 0.0
2014-Dec-10 12:32N 29°44' W 095°17'0 0.0
2014-Dec-10 11:32N 29°44' W 095°17'0 0.0
2014-Dec-10 10:32N 29°44' W 095°17'0 0.0
2014-Dec-10 09:32N 29°44' W 095°17'0 0.0
2014-Dec-10 08:32N 29°44' W 095°17'0 0.0
2014-Dec-10 07:32N 29°44' W 095°17'0 0.0
2014-Dec-10 06:32N 29°44' W 095°17'0 0.0
2014-Dec-10 05:32N 29°44' W 095°17'0 0.0
2014-Dec-10 04:32N 29°44' W 095°17'0 0.0
2014-Dec-10 03:32N 29°44' W 095°17'0 0.0
2014-Dec-10 02:32N 29°44' W 095°17'0 0.0
2014-Dec-10 01:32N 29°44' W 095°17'0 0.0
2014-Dec-10 00:32N 29°44' W 095°17'0 0.0
2014-Dec-09 23:29N 29°44' W 095°17'0 0.0
2014-Dec-09 22:32N 29°44' W 095°17'0 0.0
2014-Dec-09 21:32N 29°44' W 095°17'0 0.0
2014-Dec-09 20:32N 29°44' W 095°17'0 0.0
2014-Dec-09 19:32N 29°44' W 095°17'0 0.0
2014-Dec-09 18:32N 29°44' W 095°17'0 0.0
2014-Dec-09 17:32N 29°44' W 095°17'0 0.0
2014-Dec-09 16:32N 29°44' W 095°17'0 0.0
2014-Dec-09 15:32N 29°44' W 095°17'0 0.0
2014-Dec-09 14:32N 29°44' W 095°17'0 0.0
2014-Dec-09 13:32N 29°44' W 095°17'0 0.0
2014-Dec-09 12:32N 29°44' W 095°17'0 0.0
2014-Dec-09 11:32N 29°44' W 095°17'0 0.0
2014-Dec-09 10:32N 29°44' W 095°17'0 0.0
2014-Dec-09 09:32N 29°44' W 095°17'0 0.0
2014-Dec-09 08:32N 29°44' W 095°17'0 0.0
2014-Dec-09 07:32N 29°44' W 095°17'0 0.0
2014-Dec-09 06:29N 29°44' W 095°17'0 0.0
2014-Dec-09 05:32N 29°44' W 095°17'0 0.0
2014-Dec-09 04:32N 29°44' W 095°17'0 0.0
2014-Dec-09 03:32N 29°44' W 095°17'0 0.0
2014-Dec-09 02:32N 29°44' W 095°17'0 0.0
2014-Dec-09 01:32N 29°44' W 095°17'0 0.0
2014-Dec-09 00:32N 29°44' W 095°17'0 0.0
2014-Dec-08 23:32N 29°44' W 095°17'0 0.0
2014-Dec-08 22:32N 29°44' W 095°17'0 0.0
2014-Dec-08 21:32N 29°44' W 095°17'0 0.0
2014-Dec-08 20:32N 29°44' W 095°17'0 0.0
2014-Dec-08 19:32N 29°44' W 095°17'0 0.0
2014-Dec-08 18:32N 29°44' W 095°17'0 0.0
2014-Dec-08 17:29N 29°44' W 095°17'0 0.0
2014-Dec-08 16:32N 29°44' W 095°17'0 0.0
2014-Dec-08 15:32N 29°44' W 095°17'0 0.0
2014-Dec-08 14:32N 29°44' W 095°17'0 0.0
2014-Dec-08 13:32N 29°44' W 095°17'0 0.0
2014-Dec-08 12:32N 29°44' W 095°17'0 0.0
2014-Dec-08 11:26N 29°44' W 095°17'0 0.0
2014-Dec-08 10:32N 29°44' W 095°17'0 0.0
2014-Dec-08 09:32N 29°44' W 095°17'0 0.0
2014-Dec-08 08:32N 29°44' W 095°17'0 0.0
2014-Dec-08 07:32N 29°44' W 095°17'0 0.0
2014-Dec-08 06:32N 29°44' W 095°17'0 0.0
2014-Dec-08 05:32N 29°44' W 095°17'0 0.0
2014-Dec-08 04:32N 29°44' W 095°17'0 0.0
2014-Dec-08 03:32N 29°44' W 095°17'0 0.0
2014-Dec-08 02:32N 29°44' W 095°17'0 0.0
2014-Dec-08 01:32N 29°44' W 095°17'0 0.0
2014-Dec-08 00:32N 29°44' W 095°17'0 0.0
2014-Dec-07 23:32N 29°44' W 095°17'0 0.0
2014-Dec-07 22:32N 29°44' W 095°17'0 0.0
2014-Dec-07 21:32N 29°44' W 095°17'0 0.0
2014-Dec-07 20:32N 29°44' W 095°17'0 0.0
2014-Dec-07 19:32N 29°44' W 095°17'0 0.0
2014-Dec-07 18:32N 29°44' W 095°17'0 0.0
2014-Dec-07 17:26N 29°44' W 095°17'0 0.0
2014-Dec-07 16:32N 29°44' W 095°17'0 0.0
2014-Dec-07 15:32N 29°44' W 095°17'0 0.0
2014-Dec-07 14:32N 29°44' W 095°17'0 0.0
2014-Dec-07 13:32N 29°44' W 095°17'0 0.0
2014-Dec-07 06:23N 29°44' W 095°17'0 0.0
2014-Dec-07 05:32N 29°44' W 095°17'0 0.0
2014-Dec-07 04:32N 29°44' W 095°17'0 0.0
2014-Dec-07 03:32N 29°44' W 095°17'0 0.0
2014-Dec-07 02:32N 29°44' W 095°17'0 0.0
2014-Dec-07 01:32N 29°44' W 095°17'0 0.0
2014-Dec-07 00:32N 29°44' W 095°17'0 0.0
2014-Dec-06 23:32N 29°44' W 095°17'  
Track history (hours):
 
Tides and Currents Weather Stations Pressure Air Temp Water Temp Dewpoint Dewpoint Depression Visibility Wind Speed Wind Dir Waves Ship Positions

Red Diamond

Last reported at 2014-Dec-16 23:08 UTC. Time now 2014-Dec-19 16:28 UTC.
Position N 29°23' W 094°48'.

Length 190 m; draft 12 m.

Type: Cargo ship. MMSI: 636014524.

Date/timePositionNaut miles runAvg speedWind from/ knotsBaromVisibWave heightAir tempDewpointWater temp
2014-Dec-16 23:08N 29°23' W 094°48'610.3
2014-Dec-16 22:33N 29°28' W 094°51'1010.1
2014-Dec-16 21:33N 29°36' W 094°57'8 7.8
2014-Dec-16 20:33N 29°43' W 095°01'5 5.3
2014-Dec-16 19:33N 29°44' W 095°07'1 1.1
2014-Dec-16 18:31N 29°44' W 095°09'0 0.0
2014-Dec-16 17:31N 29°44' W 095°09'0 0.0
2014-Dec-16 16:31N 29°44' W 095°09'0 0.0
2014-Dec-16 15:31N 29°44' W 095°09'0 0.0
2014-Dec-16 14:31N 29°44' W 095°09'0 0.0
2014-Dec-16 13:31N 29°44' W 095°09'0 0.0
2014-Dec-16 12:31N 29°44' W 095°09'0 0.0
2014-Dec-16 11:31N 29°44' W 095°09'0 0.0
2014-Dec-16 10:31N 29°44' W 095°09'0 0.0
2014-Dec-16 09:31N 29°44' W 095°09'0 0.0
2014-Dec-16 08:31N 29°44' W 095°09'0 0.0
2014-Dec-16 07:31N 29°44' W 095°09'0 0.0
2014-Dec-16 06:31N 29°44' W 095°09'0 0.0
2014-Dec-16 05:22N 29°44' W 095°09'0 0.0
2014-Dec-16 04:32N 29°44' W 095°09'0 0.0
2014-Dec-16 03:31N 29°44' W 095°09'0 0.0
2014-Dec-16 02:25N 29°44' W 095°09'0 0.0
2014-Dec-16 01:10N 29°44' W 095°09'0 0.0
2014-Dec-16 00:07N 29°44' W 095°09'0 0.0
2014-Dec-15 23:19N 29°44' W 095°09'0 0.0
2014-Dec-15 22:31N 29°44' W 095°09'0 0.0
2014-Dec-15 21:31N 29°44' W 095°09'0 0.0
2014-Dec-15 20:31N 29°44' W 095°09'0 0.0
2014-Dec-15 19:31N 29°44' W 095°09'0 0.0
2014-Dec-15 18:31N 29°44' W 095°09'0 0.0
2014-Dec-15 17:31N 29°44' W 095°09'0 0.0
2014-Dec-15 16:31N 29°44' W 095°09'0 0.0
2014-Dec-15 15:31N 29°44' W 095°09'0 0.0
2014-Dec-15 14:31N 29°44' W 095°09'0 0.0
2014-Dec-15 13:31N 29°44' W 095°09'3 3.5
2014-Dec-15 12:33N 29°44' W 095°13'4 0.3
2014-Dec-15 00:17N 29°44' W 095°17'0 0.0
2014-Dec-14 23:26N 29°44' W 095°17'0 0.0
2014-Dec-14 22:32N 29°44' W 095°17'0 0.0
2014-Dec-14 21:32N 29°44' W 095°17'0 0.0
2014-Dec-14 20:26N 29°44' W 095°17'0 0.0
2014-Dec-14 19:32N 29°44' W 095°17'0 0.0
2014-Dec-14 18:32N 29°44' W 095°17'0 0.0
2014-Dec-14 17:32N 29°44' W 095°17'0 0.0
2014-Dec-14 16:32N 29°44' W 095°17'0 0.0
2014-Dec-14 14:29N 29°44' W 095°17'0 0.0
2014-Dec-14 13:32N 29°44' W 095°17'0 0.0
2014-Dec-13 22:32N 29°44' W 095°17'0 0.0
2014-Dec-13 21:32N 29°44' W 095°17'0 0.0
2014-Dec-13 20:32N 29°44' W 095°17'0 0.0
2014-Dec-13 19:14N 29°44' W 095°17'0 0.0
2014-Dec-13 18:14N 29°44' W 095°17'0 0.0
2014-Dec-13 17:32N 29°44' W 095°17'0 0.0
2014-Dec-13 16:32N 29°44' W 095°17'0 0.0
2014-Dec-13 15:32N 29°44' W 095°17'0 0.0
2014-Dec-13 14:32N 29°44' W 095°17'0 0.0
2014-Dec-13 13:29N 29°44' W 095°17'0 0.0
2014-Dec-13 12:32N 29°44' W 095°17'0 0.0
2014-Dec-13 11:32N 29°44' W 095°17'0 0.0
2014-Dec-13 10:32N 29°44' W 095°17'0 0.0
2014-Dec-13 09:32N 29°44' W 095°17'0 0.0
2014-Dec-13 08:32N 29°44' W 095°17'0 0.0
2014-Dec-13 07:32N 29°44' W 095°17'0 0.0
2014-Dec-13 06:32N 29°44' W 095°17'0 0.0
2014-Dec-13 05:32N 29°44' W 095°17'0 0.0
2014-Dec-13 04:32N 29°44' W 095°17'0 0.0
2014-Dec-13 03:32N 29°44' W 095°17'0 0.0
2014-Dec-13 02:32N 29°44' W 095°17'0 0.0
2014-Dec-13 01:32N 29°44' W 095°17'0 0.0
2014-Dec-13 00:32N 29°44' W 095°17'0 0.0
2014-Dec-12 23:32N 29°44' W 095°17'0 0.0
2014-Dec-12 22:32N 29°44' W 095°17'0 0.0
2014-Dec-12 21:32N 29°44' W 095°17'0 0.0
2014-Dec-12 20:32N 29°44' W 095°17'0 0.0
2014-Dec-12 19:32N 29°44' W 095°17'0 0.0
2014-Dec-12 18:32N 29°44' W 095°17'0 0.0
2014-Dec-12 17:32N 29°44' W 095°17'0 0.0
2014-Dec-12 16:32N 29°44' W 095°17'0 0.0
2014-Dec-12 15:32N 29°44' W 095°17'0 0.0
2014-Dec-12 14:32N 29°44' W 095°17'0 0.0
2014-Dec-12 13:32N 29°44' W 095°17'0 0.0
2014-Dec-12 12:32N 29°44' W 095°17'0 0.0
2014-Dec-12 11:32N 29°44' W 095°17'0 0.0
2014-Dec-12 10:32N 29°44' W 095°17'0 0.0
2014-Dec-12 09:32N 29°44' W 095°17'0 0.0
2014-Dec-12 08:32N 29°44' W 095°17'0 0.0
2014-Dec-12 07:32N 29°44' W 095°17'0 0.0
2014-Dec-12 06:32N 29°44' W 095°17'0 0.0
2014-Dec-12 05:32N 29°44' W 095°17'0 0.0
2014-Dec-12 04:32N 29°44' W 095°17'0 0.0
2014-Dec-12 03:32N 29°44' W 095°17'0 0.0
2014-Dec-12 02:32N 29°44' W 095°17'0 0.0
2014-Dec-12 01:32N 29°44' W 095°17'0 0.0
2014-Dec-12 00:32N 29°44' W 095°17'0 0.0
2014-Dec-11 23:32N 29°44' W 095°17'0 0.0
2014-Dec-11 22:32N 29°44' W 095°17'0 0.0
2014-Dec-11 21:32N 29°44' W 095°17'0 0.0
2014-Dec-11 20:32N 29°44' W 095°17'0 0.0
2014-Dec-11 19:32N 29°44' W 095°17'0 0.0
2014-Dec-11 18:32N 29°44' W 095°17'0 0.0
2014-Dec-11 17:32N 29°44' W 095°17'0 0.0
2014-Dec-11 16:32N 29°44' W 095°17'0 0.0
2014-Dec-11 15:32N 29°44' W 095°17'0 0.0
2014-Dec-11 14:32N 29°44' W 095°17'0 0.0
2014-Dec-11 13:32N 29°44' W 095°17'0 0.0
2014-Dec-11 12:32N 29°44' W 095°17'0 0.0
2014-Dec-11 11:32N 29°44' W 095°17'0 0.0
2014-Dec-11 10:32N 29°44' W 095°17'0 0.0
2014-Dec-11 09:32N 29°44' W 095°17'0 0.0
2014-Dec-11 08:32N 29°44' W 095°17'0 0.0
2014-Dec-11 07:32N 29°44' W 095°17'0 0.0
2014-Dec-11 06:32N 29°44' W 095°17'0 0.0
2014-Dec-11 05:32N 29°44' W 095°17'0 0.0
2014-Dec-11 04:32N 29°44' W 095°17'0 0.0
2014-Dec-11 03:32N 29°44' W 095°17'0 0.0
2014-Dec-11 02:32N 29°44' W 095°17'0 0.0
2014-Dec-11 01:32N 29°44' W 095°17'0 0.0
2014-Dec-11 00:32N 29°44' W 095°17'0 0.0
2014-Dec-10 23:32N 29°44' W 095°17'0 0.0
2014-Dec-10 22:32N 29°44' W 095°17'0 0.0
2014-Dec-10 21:32N 29°44' W 095°17'0 0.0
2014-Dec-10 20:32N 29°44' W 095°17'0 0.0
2014-Dec-10 19:32N 29°44' W 095°17'0 0.0
2014-Dec-10 18:32N 29°44' W 095°17'0 0.0
2014-Dec-10 17:32N 29°44' W 095°17'0 0.0
2014-Dec-10 16:32N 29°44' W 095°17'0 0.0
2014-Dec-10 15:32N 29°44' W 095°17'0 0.0
2014-Dec-10 14:32N 29°44' W 095°17'0 0.0
2014-Dec-10 13:32N 29°44' W 095°17'0 0.0
2014-Dec-10 12:32N 29°44' W 095°17'0 0.0
2014-Dec-10 11:32N 29°44' W 095°17'0 0.0
2014-Dec-10 10:32N 29°44' W 095°17'0 0.0
2014-Dec-10 09:32N 29°44' W 095°17'0 0.0
2014-Dec-10 08:32N 29°44' W 095°17'0 0.0
2014-Dec-10 07:32N 29°44' W 095°17'0 0.0
2014-Dec-10 06:32N 29°44' W 095°17'0 0.0
2014-Dec-10 05:32N 29°44' W 095°17'0 0.0
2014-Dec-10 04:32N 29°44' W 095°17'0 0.0
2014-Dec-10 03:32N 29°44' W 095°17'0 0.0
2014-Dec-10 02:32N 29°44' W 095°17'0 0.0
2014-Dec-10 01:32N 29°44' W 095°17'0 0.0
2014-Dec-10 00:32N 29°44' W 095°17'0 0.0
2014-Dec-09 23:29N 29°44' W 095°17'0 0.0
2014-Dec-09 22:32N 29°44' W 095°17'0 0.0
2014-Dec-09 21:32N 29°44' W 095°17'0 0.0
2014-Dec-09 20:32N 29°44' W 095°17'0 0.0
2014-Dec-09 19:32N 29°44' W 095°17'0 0.0
2014-Dec-09 18:32N 29°44' W 095°17'0 0.0
2014-Dec-09 17:32N 29°44' W 095°17'0 0.0
2014-Dec-09 16:32N 29°44' W 095°17'0 0.0
2014-Dec-09 15:32N 29°44' W 095°17'0 0.0
2014-Dec-09 14:32N 29°44' W 095°17'0 0.0
2014-Dec-09 13:32N 29°44' W 095°17'0 0.0
2014-Dec-09 12:32N 29°44' W 095°17'0 0.0
2014-Dec-09 11:32N 29°44' W 095°17'0 0.0
2014-Dec-09 10:32N 29°44' W 095°17'0 0.0
2014-Dec-09 09:32N 29°44' W 095°17'0 0.0
2014-Dec-09 08:32N 29°44' W 095°17'0 0.0
2014-Dec-09 07:32N 29°44' W 095°17'0 0.0
2014-Dec-09 06:29N 29°44' W 095°17'0 0.0
2014-Dec-09 05:32N 29°44' W 095°17'0 0.0
2014-Dec-09 04:32N 29°44' W 095°17'0 0.0
2014-Dec-09 03:32N 29°44' W 095°17'0 0.0
2014-Dec-09 02:32N 29°44' W 095°17'0 0.0
2014-Dec-09 01:32N 29°44' W 095°17'0 0.0
2014-Dec-09 00:32N 29°44' W 095°17'0 0.0
2014-Dec-08 23:32N 29°44' W 095°17'0 0.0
2014-Dec-08 22:32N 29°44' W 095°17'0 0.0
2014-Dec-08 21:32N 29°44' W 095°17'0 0.0
2014-Dec-08 20:32N 29°44' W 095°17'0 0.0
2014-Dec-08 19:32N 29°44' W 095°17'0 0.0
2014-Dec-08 18:32N 29°44' W 095°17'0 0.0
2014-Dec-08 17:29N 29°44' W 095°17'0 0.0
2014-Dec-08 16:32N 29°44' W 095°17'0 0.0
2014-Dec-08 15:32N 29°44' W 095°17'0 0.0
2014-Dec-08 14:32N 29°44' W 095°17'0 0.0
2014-Dec-08 13:32N 29°44' W 095°17'0 0.0
2014-Dec-08 12:32N 29°44' W 095°17'0 0.0
2014-Dec-08 11:26N 29°44' W 095°17'0 0.0
2014-Dec-08 10:32N 29°44' W 095°17'0 0.0
2014-Dec-08 09:32N 29°44' W 095°17'0 0.0
2014-Dec-08 08:32N 29°44' W 095°17'0 0.0
2014-Dec-08 07:32N 29°44' W 095°17'0 0.0
2014-Dec-08 06:32N 29°44' W 095°17'0 0.0
2014-Dec-08 05:32N 29°44' W 095°17'0 0.0
2014-Dec-08 04:32N 29°44' W 095°17'0 0.0
2014-Dec-08 03:32N 29°44' W 095°17'0 0.0
2014-Dec-08 02:32N 29°44' W 095°17'0 0.0
2014-Dec-08 01:32N 29°44' W 095°17'0 0.0
2014-Dec-08 00:32N 29°44' W 095°17'0 0.0
2014-Dec-07 23:32N 29°44' W 095°17'0 0.0
2014-Dec-07 22:32N 29°44' W 095°17'0 0.0
2014-Dec-07 21:32N 29°44' W 095°17'0 0.0
2014-Dec-07 20:32N 29°44' W 095°17'0 0.0
2014-Dec-07 19:32N 29°44' W 095°17'0 0.0
2014-Dec-07 18:32N 29°44' W 095°17'0 0.0
2014-Dec-07 17:26N 29°44' W 095°17'0 0.0
2014-Dec-07 16:32N 29°44' W 095°17'0 0.0
2014-Dec-07 15:32N 29°44' W 095°17'0 0.0
2014-Dec-07 14:32N 29°44' W 095°17'0 0.0
2014-Dec-07 13:32N 29°44' W 095°17'0 0.0
2014-Dec-07 06:23N 29°44' W 095°17'0 0.0
2014-Dec-07 05:32N 29°44' W 095°17'0 0.0
2014-Dec-07 04:32N 29°44' W 095°17'0 0.0
2014-Dec-07 03:32N 29°44' W 095°17'0 0.0
2014-Dec-07 02:32N 29°44' W 095°17'0 0.0
2014-Dec-07 01:32N 29°44' W 095°17'0 0.0
2014-Dec-07 00:32N 29°44' W 095°17'0 0.0
2014-Dec-06 23:32N 29°44' W 095°17'  

Dump ship's entire track history